sensor_id;sensor_type;location;lat;lon;timestamp;P1;durP1;ratioP1;P2;durP2;ratioP2
60612;SDS011;46443;59.792;17.626;2022-08-03T00:01:37;3.28;;;1.70;;
60612;SDS011;46443;59.792;17.626;2022-08-03T00:04:05;3.37;;;1.50;;
60612;SDS011;46443;59.792;17.626;2022-08-03T00:06:31;2.40;;;1.33;;
60612;SDS011;46443;59.792;17.626;2022-08-03T00:08:57;4.67;;;1.60;;
60612;SDS011;46443;59.792;17.626;2022-08-03T00:11:23;1.83;;;1.33;;
60612;SDS011;46443;59.792;17.626;2022-08-03T00:13:50;3.23;;;1.40;;
60612;SDS011;46443;59.792;17.626;2022-08-03T00:16:16;3.40;;;1.50;;
60612;SDS011;46443;59.792;17.626;2022-08-03T00:18:42;2.77;;;1.50;;
60612;SDS011;46443;59.792;17.626;2022-08-03T00:21:08;3.97;;;2.00;;
60612;SDS011;46443;59.792;17.626;2022-08-03T00:23:34;3.63;;;1.50;;
60612;SDS011;46443;59.792;17.626;2022-08-03T00:26:00;2.80;;;1.43;;
60612;SDS011;46443;59.792;17.626;2022-08-03T00:28:26;3.13;;;1.80;;
60612;SDS011;46443;59.792;17.626;2022-08-03T00:30:52;3.33;;;1.80;;
60612;SDS011;46443;59.792;17.626;2022-08-03T00:33:19;4.87;;;1.63;;
60612;SDS011;46443;59.792;17.626;2022-08-03T00:35:46;2.10;;;1.63;;
60612;SDS011;46443;59.792;17.626;2022-08-03T00:38:12;2.63;;;1.60;;
60612;SDS011;46443;59.792;17.626;2022-08-03T00:40:38;5.83;;;2.13;;
60612;SDS011;46443;59.792;17.626;2022-08-03T00:43:05;2.23;;;1.50;;
60612;SDS011;46443;59.792;17.626;2022-08-03T00:45:33;2.20;;;1.40;;
60612;SDS011;46443;59.792;17.626;2022-08-03T00:47:59;3.13;;;1.40;;
60612;SDS011;46443;59.792;17.626;2022-08-03T00:50:26;3.13;;;1.60;;
60612;SDS011;46443;59.792;17.626;2022-08-03T00:52:53;3.37;;;1.57;;
60612;SDS011;46443;59.792;17.626;2022-08-03T00:55:19;3.03;;;1.80;;
60612;SDS011;46443;59.792;17.626;2022-08-03T00:57:45;2.33;;;1.47;;
60612;SDS011;46443;59.792;17.626;2022-08-03T01:00:12;1.87;;;1.50;;
60612;SDS011;46443;59.792;17.626;2022-08-03T01:02:39;2.23;;;1.47;;
60612;SDS011;46443;59.792;17.626;2022-08-03T01:05:05;3.03;;;1.60;;
60612;SDS011;46443;59.792;17.626;2022-08-03T01:15:42;2.10;;;1.47;;
60612;SDS011;46443;59.792;17.626;2022-08-03T01:18:11;4.27;;;1.70;;
60612;SDS011;46443;59.792;17.626;2022-08-03T01:20:39;2.50;;;1.50;;
60612;SDS011;46443;59.792;17.626;2022-08-03T01:31:00;3.17;;;1.58;;
60612;SDS011;46443;59.792;17.626;2022-08-03T01:33:32;2.10;;;1.33;;
60612;SDS011;46443;59.792;17.626;2022-08-03T01:36:01;2.53;;;1.60;;
60612;SDS011;46443;59.792;17.626;2022-08-03T01:38:28;4.00;;;1.90;;
60612;SDS011;46443;59.792;17.626;2022-08-03T01:40:55;3.67;;;1.80;;
60612;SDS011;46443;59.792;17.626;2022-08-03T01:43:25;4.53;;;1.70;;
60612;SDS011;46443;59.792;17.626;2022-08-03T01:45:52;3.17;;;1.53;;
60612;SDS011;46443;59.792;17.626;2022-08-03T01:48:19;4.10;;;1.50;;
60612;SDS011;46443;59.792;17.626;2022-08-03T01:50:46;3.57;;;1.60;;
60612;SDS011;46443;59.792;17.626;2022-08-03T01:53:14;2.50;;;1.70;;
60612;SDS011;46443;59.792;17.626;2022-08-03T01:55:40;3.10;;;1.63;;
60612;SDS011;46443;59.792;17.626;2022-08-03T01:58:07;2.60;;;1.50;;
60612;SDS011;46443;59.792;17.626;2022-08-03T02:00:36;3.77;;;1.87;;
60612;SDS011;46443;59.792;17.626;2022-08-03T02:03:04;2.27;;;1.40;;
60612;SDS011;46443;59.792;17.626;2022-08-03T02:05:30;3.87;;;1.90;;
60612;SDS011;46443;59.792;17.626;2022-08-03T02:07:56;4.40;;;1.70;;
60612;SDS011;46443;59.792;17.626;2022-08-03T02:10:23;4.10;;;1.80;;
60612;SDS011;46443;59.792;17.626;2022-08-03T02:12:50;3.20;;;1.53;;
60612;SDS011;46443;59.792;17.626;2022-08-03T02:15:16;3.80;;;1.93;;
60612;SDS011;46443;59.792;17.626;2022-08-03T02:17:44;6.10;;;2.47;;
60612;SDS011;46443;59.792;17.626;2022-08-03T02:20:12;3.50;;;1.73;;
60612;SDS011;46443;59.792;17.626;2022-08-03T02:22:39;3.90;;;1.80;;
60612;SDS011;46443;59.792;17.626;2022-08-03T02:25:06;4.63;;;1.70;;
60612;SDS011;46443;59.792;17.626;2022-08-03T02:27:33;4.43;;;2.00;;
60612;SDS011;46443;59.792;17.626;2022-08-03T02:30:04;4.87;;;2.00;;
60612;SDS011;46443;59.792;17.626;2022-08-03T02:32:31;3.00;;;1.70;;
60612;SDS011;46443;59.792;17.626;2022-08-03T02:34:59;3.90;;;1.83;;
60612;SDS011;46443;59.792;17.626;2022-08-03T02:37:26;4.23;;;1.90;;
60612;SDS011;46443;59.792;17.626;2022-08-03T02:39:54;3.93;;;1.60;;
60612;SDS011;46443;59.792;17.626;2022-08-03T02:42:22;4.90;;;1.90;;
60612;SDS011;46443;59.792;17.626;2022-08-03T02:44:49;3.50;;;1.60;;
60612;SDS011;46443;59.792;17.626;2022-08-03T02:47:16;5.13;;;2.00;;
60612;SDS011;46443;59.792;17.626;2022-08-03T02:49:45;3.58;;;2.00;;
60612;SDS011;46443;59.792;17.626;2022-08-03T02:52:11;3.27;;;1.80;;
60612;SDS011;46443;59.792;17.626;2022-08-03T02:54:37;2.77;;;1.67;;
60612;SDS011;46443;59.792;17.626;2022-08-03T02:57:06;4.23;;;1.70;;
60612;SDS011;46443;59.792;17.626;2022-08-03T02:59:32;2.57;;;1.60;;
60612;SDS011;46443;59.792;17.626;2022-08-03T03:01:59;4.27;;;1.90;;
60612;SDS011;46443;59.792;17.626;2022-08-03T03:04:26;4.00;;;1.87;;
60612;SDS011;46443;59.792;17.626;2022-08-03T03:06:52;3.37;;;1.70;;
60612;SDS011;46443;59.792;17.626;2022-08-03T03:09:19;5.67;;;1.80;;
60612;SDS011;46443;59.792;17.626;2022-08-03T03:11:45;4.47;;;2.00;;
60612;SDS011;46443;59.792;17.626;2022-08-03T03:14:13;2.80;;;1.90;;
60612;SDS011;46443;59.792;17.626;2022-08-03T03:16:40;2.50;;;1.60;;
60612;SDS011;46443;59.792;17.626;2022-08-03T03:19:06;5.30;;;1.87;;
60612;SDS011;46443;59.792;17.626;2022-08-03T03:21:33;3.13;;;1.63;;
60612;SDS011;46443;59.792;17.626;2022-08-03T03:24:00;2.77;;;1.70;;
60612;SDS011;46443;59.792;17.626;2022-08-03T03:26:26;4.23;;;1.90;;
60612;SDS011;46443;59.792;17.626;2022-08-03T03:28:52;3.53;;;1.80;;
60612;SDS011;46443;59.792;17.626;2022-08-03T03:31:18;3.77;;;1.83;;
60612;SDS011;46443;59.792;17.626;2022-08-03T03:33:44;5.63;;;2.03;;
60612;SDS011;46443;59.792;17.626;2022-08-03T03:36:11;4.77;;;2.10;;
60612;SDS011;46443;59.792;17.626;2022-08-03T03:38:37;6.33;;;1.90;;
60612;SDS011;46443;59.792;17.626;2022-08-03T03:41:03;4.30;;;2.03;;
60612;SDS011;46443;59.792;17.626;2022-08-03T03:43:29;3.77;;;1.90;;
60612;SDS011;46443;59.792;17.626;2022-08-03T03:45:56;3.60;;;2.00;;
60612;SDS011;46443;59.792;17.626;2022-08-03T03:48:23;3.53;;;1.57;;
60612;SDS011;46443;59.792;17.626;2022-08-03T03:50:49;5.67;;;2.20;;
60612;SDS011;46443;59.792;17.626;2022-08-03T03:53:15;2.93;;;1.70;;
60612;SDS011;46443;59.792;17.626;2022-08-03T03:55:41;4.47;;;1.87;;
60612;SDS011;46443;59.792;17.626;2022-08-03T03:58:07;2.77;;;1.73;;
60612;SDS011;46443;59.792;17.626;2022-08-03T04:00:33;3.27;;;1.80;;
60612;SDS011;46443;59.792;17.626;2022-08-03T04:02:59;4.33;;;2.30;;
60612;SDS011;46443;59.792;17.626;2022-08-03T04:05:25;2.60;;;1.67;;
60612;SDS011;46443;59.792;17.626;2022-08-03T04:08:14;2.90;;;1.80;;
60612;SDS011;46443;59.792;17.626;2022-08-03T04:11:13;4.80;;;2.13;;
60612;SDS011;46443;59.792;17.626;2022-08-03T04:14:00;2.83;;;1.77;;
60612;SDS011;46443;59.792;17.626;2022-08-03T04:16:29;2.80;;;1.90;;
60612;SDS011;46443;59.792;17.626;2022-08-03T04:18:58;3.43;;;1.87;;
60612;SDS011;46443;59.792;17.626;2022-08-03T04:21:25;3.03;;;1.70;;
60612;SDS011;46443;59.792;17.626;2022-08-03T04:23:54;3.10;;;1.90;;
60612;SDS011;46443;59.792;17.626;2022-08-03T04:26:21;3.13;;;1.87;;
60612;SDS011;46443;59.792;17.626;2022-08-03T04:28:47;3.33;;;1.70;;
60612;SDS011;46443;59.792;17.626;2022-08-03T04:31:15;5.37;;;1.90;;
60612;SDS011;46443;59.792;17.626;2022-08-03T04:33:42;5.13;;;1.90;;
60612;SDS011;46443;59.792;17.626;2022-08-03T04:36:10;3.17;;;1.80;;
60612;SDS011;46443;59.792;17.626;2022-08-03T04:38:47;8.17;;;2.10;;
60612;SDS011;46443;59.792;17.626;2022-08-03T04:41:18;3.63;;;1.83;;
60612;SDS011;46443;59.792;17.626;2022-08-03T04:43:44;4.07;;;1.97;;
60612;SDS011;46443;59.792;17.626;2022-08-03T04:46:10;3.27;;;1.90;;
60612;SDS011;46443;59.792;17.626;2022-08-03T04:48:37;4.83;;;2.30;;
60612;SDS011;46443;59.792;17.626;2022-08-03T04:51:03;5.07;;;2.00;;
60612;SDS011;46443;59.792;17.626;2022-08-03T04:53:30;3.10;;;1.63;;
60612;SDS011;46443;59.792;17.626;2022-08-03T04:56:02;3.03;;;1.80;;
60612;SDS011;46443;59.792;17.626;2022-08-03T04:58:28;3.67;;;1.90;;
60612;SDS011;46443;59.792;17.626;2022-08-03T05:00:54;3.43;;;2.03;;
60612;SDS011;46443;59.792;17.626;2022-08-03T05:03:20;3.90;;;2.10;;
60612;SDS011;46443;59.792;17.626;2022-08-03T05:05:46;3.70;;;1.83;;
60612;SDS011;46443;59.792;17.626;2022-08-03T05:08:12;2.70;;;1.73;;
60612;SDS011;46443;59.792;17.626;2022-08-03T05:10:38;4.00;;;1.90;;
60612;SDS011;46443;59.792;17.626;2022-08-03T05:13:04;6.17;;;2.07;;
60612;SDS011;46443;59.792;17.626;2022-08-03T05:15:30;4.30;;;1.90;;
60612;SDS011;46443;59.792;17.626;2022-08-03T05:17:56;2.90;;;2.00;;
60612;SDS011;46443;59.792;17.626;2022-08-03T05:20:22;4.57;;;2.13;;
60612;SDS011;46443;59.792;17.626;2022-08-03T05:22:48;4.47;;;2.00;;
60612;SDS011;46443;59.792;17.626;2022-08-03T05:25:14;5.47;;;1.90;;
60612;SDS011;46443;59.792;17.626;2022-08-03T05:27:40;3.77;;;2.10;;
60612;SDS011;46443;59.792;17.626;2022-08-03T05:30:06;2.83;;;1.60;;
60612;SDS011;46443;59.792;17.626;2022-08-03T05:32:32;3.57;;;1.90;;
60612;SDS011;46443;59.792;17.626;2022-08-03T05:34:58;3.17;;;1.97;;
60612;SDS011;46443;59.792;17.626;2022-08-03T05:37:24;2.63;;;1.73;;
60612;SDS011;46443;59.792;17.626;2022-08-03T05:39:50;3.53;;;2.00;;
60612;SDS011;46443;59.792;17.626;2022-08-03T05:42:16;4.03;;;1.93;;
60612;SDS011;46443;59.792;17.626;2022-08-03T05:44:42;4.50;;;2.00;;
60612;SDS011;46443;59.792;17.626;2022-08-03T05:47:08;5.50;;;2.03;;
60612;SDS011;46443;59.792;17.626;2022-08-03T05:49:34;3.83;;;2.20;;
60612;SDS011;46443;59.792;17.626;2022-08-03T05:52:00;4.57;;;2.03;;
60612;SDS011;46443;59.792;17.626;2022-08-03T05:54:26;3.40;;;1.90;;
60612;SDS011;46443;59.792;17.626;2022-08-03T05:56:52;4.27;;;2.00;;
60612;SDS011;46443;59.792;17.626;2022-08-03T05:59:18;5.77;;;2.20;;
60612;SDS011;46443;59.792;17.626;2022-08-03T06:01:45;3.30;;;2.23;;
60612;SDS011;46443;59.792;17.626;2022-08-03T06:04:11;3.63;;;2.20;;
60612;SDS011;46443;59.792;17.626;2022-08-03T06:06:37;4.10;;;2.30;;
60612;SDS011;46443;59.792;17.626;2022-08-03T06:09:03;4.93;;;2.17;;
60612;SDS011;46443;59.792;17.626;2022-08-03T06:11:29;3.60;;;2.10;;
60612;SDS011;46443;59.792;17.626;2022-08-03T06:13:55;6.47;;;2.50;;
60612;SDS011;46443;59.792;17.626;2022-08-03T06:16:21;4.93;;;2.67;;
60612;SDS011;46443;59.792;17.626;2022-08-03T06:18:47;5.07;;;2.40;;
60612;SDS011;46443;59.792;17.626;2022-08-03T06:21:13;4.13;;;2.23;;
60612;SDS011;46443;59.792;17.626;2022-08-03T06:23:40;4.97;;;2.57;;
60612;SDS011;46443;59.792;17.626;2022-08-03T06:26:07;5.20;;;2.50;;
60612;SDS011;46443;59.792;17.626;2022-08-03T06:28:33;4.10;;;2.50;;
60612;SDS011;46443;59.792;17.626;2022-08-03T06:30:59;7.10;;;2.90;;
60612;SDS011;46443;59.792;17.626;2022-08-03T06:33:25;5.47;;;3.00;;
60612;SDS011;46443;59.792;17.626;2022-08-03T06:35:51;7.27;;;2.50;;
60612;SDS011;46443;59.792;17.626;2022-08-03T06:38:17;4.30;;;2.73;;
60612;SDS011;46443;59.792;17.626;2022-08-03T06:40:43;4.63;;;2.90;;
60612;SDS011;46443;59.792;17.626;2022-08-03T06:43:09;6.17;;;2.70;;
60612;SDS011;46443;59.792;17.626;2022-08-03T06:45:36;6.37;;;2.73;;
60612;SDS011;46443;59.792;17.626;2022-08-03T06:48:11;5.57;;;2.70;;
60612;SDS011;46443;59.792;17.626;2022-08-03T06:50:38;3.97;;;2.53;;
60612;SDS011;46443;59.792;17.626;2022-08-03T06:53:05;5.27;;;2.93;;
60612;SDS011;46443;59.792;17.626;2022-08-03T06:55:31;4.10;;;2.70;;
60612;SDS011;46443;59.792;17.626;2022-08-03T06:57:57;5.60;;;2.93;;
60612;SDS011;46443;59.792;17.626;2022-08-03T07:00:23;5.50;;;2.90;;
60612;SDS011;46443;59.792;17.626;2022-08-03T07:02:50;5.80;;;2.70;;
60612;SDS011;46443;59.792;17.626;2022-08-03T07:05:16;6.10;;;2.87;;
60612;SDS011;46443;59.792;17.626;2022-08-03T07:07:42;4.40;;;2.70;;
60612;SDS011;46443;59.792;17.626;2022-08-03T07:10:09;5.00;;;2.77;;
60612;SDS011;46443;59.792;17.626;2022-08-03T07:12:38;5.72;;;3.00;;
60612;SDS011;46443;59.792;17.626;2022-08-03T07:15:05;4.60;;;2.90;;
60612;SDS011;46443;59.792;17.626;2022-08-03T07:17:32;4.30;;;2.60;;
60612;SDS011;46443;59.792;17.626;2022-08-03T07:19:59;5.17;;;2.40;;
60612;SDS011;46443;59.792;17.626;2022-08-03T07:22:25;5.00;;;2.90;;
60612;SDS011;46443;59.792;17.626;2022-08-03T07:24:51;4.70;;;2.97;;
60612;SDS011;46443;59.792;17.626;2022-08-03T07:27:17;4.47;;;2.77;;
60612;SDS011;46443;59.792;17.626;2022-08-03T07:29:43;5.70;;;2.73;;
60612;SDS011;46443;59.792;17.626;2022-08-03T07:32:09;6.20;;;2.80;;
60612;SDS011;46443;59.792;17.626;2022-08-03T07:34:35;5.43;;;2.67;;
60612;SDS011;46443;59.792;17.626;2022-08-03T07:37:01;3.63;;;2.23;;
60612;SDS011;46443;59.792;17.626;2022-08-03T07:39:27;2.83;;;2.13;;
60612;SDS011;46443;59.792;17.626;2022-08-03T07:41:53;3.90;;;2.40;;
60612;SDS011;46443;59.792;17.626;2022-08-03T07:44:19;3.50;;;2.30;;
60612;SDS011;46443;59.792;17.626;2022-08-03T07:46:45;7.93;;;2.50;;
60612;SDS011;46443;59.792;17.626;2022-08-03T07:49:11;4.07;;;2.33;;
60612;SDS011;46443;59.792;17.626;2022-08-03T07:51:38;5.50;;;2.60;;
60612;SDS011;46443;59.792;17.626;2022-08-03T07:54:04;4.30;;;2.40;;
60612;SDS011;46443;59.792;17.626;2022-08-03T07:56:30;4.70;;;2.40;;
60612;SDS011;46443;59.792;17.626;2022-08-03T07:58:56;4.43;;;2.53;;
60612;SDS011;46443;59.792;17.626;2022-08-03T08:01:23;4.70;;;2.50;;
60612;SDS011;46443;59.792;17.626;2022-08-03T08:03:49;4.40;;;2.20;;
60612;SDS011;46443;59.792;17.626;2022-08-03T08:06:16;3.60;;;2.30;;
60612;SDS011;46443;59.792;17.626;2022-08-03T08:08:42;3.37;;;1.90;;
60612;SDS011;46443;59.792;17.626;2022-08-03T08:11:08;4.70;;;2.33;;
60612;SDS011;46443;59.792;17.626;2022-08-03T08:13:34;3.73;;;2.33;;
60612;SDS011;46443;59.792;17.626;2022-08-03T08:16:02;5.10;;;2.53;;
60612;SDS011;46443;59.792;17.626;2022-08-03T08:18:28;3.80;;;2.30;;
60612;SDS011;46443;59.792;17.626;2022-08-03T08:20:54;5.03;;;2.20;;
60612;SDS011;46443;59.792;17.626;2022-08-03T08:23:20;4.80;;;2.27;;
60612;SDS011;46443;59.792;17.626;2022-08-03T08:25:47;4.17;;;2.40;;
60612;SDS011;46443;59.792;17.626;2022-08-03T08:28:16;3.33;;;2.23;;
60612;SDS011;46443;59.792;17.626;2022-08-03T08:30:42;4.40;;;2.53;;
60612;SDS011;46443;59.792;17.626;2022-08-03T08:33:08;4.23;;;2.10;;
60612;SDS011;46443;59.792;17.626;2022-08-03T08:35:34;3.87;;;2.60;;
60612;SDS011;46443;59.792;17.626;2022-08-03T08:38:00;2.90;;;2.13;;
60612;SDS011;46443;59.792;17.626;2022-08-03T08:40:27;3.73;;;1.93;;
60612;SDS011;46443;59.792;17.626;2022-08-03T08:42:53;3.40;;;2.20;;
60612;SDS011;46443;59.792;17.626;2022-08-03T08:45:19;4.30;;;2.27;;
60612;SDS011;46443;59.792;17.626;2022-08-03T08:47:45;2.47;;;2.00;;
60612;SDS011;46443;59.792;17.626;2022-08-03T08:50:12;4.50;;;2.30;;
60612;SDS011;46443;59.792;17.626;2022-08-03T08:52:41;5.40;;;2.27;;
60612;SDS011;46443;59.792;17.626;2022-08-03T08:55:08;2.57;;;1.83;;
60612;SDS011;46443;59.792;17.626;2022-08-03T08:57:37;3.47;;;2.30;;
60612;SDS011;46443;59.792;17.626;2022-08-03T09:00:04;3.37;;;2.20;;
60612;SDS011;46443;59.792;17.626;2022-08-03T09:02:32;4.55;;;2.35;;
60612;SDS011;46443;59.792;17.626;2022-08-03T09:04:59;3.27;;;2.20;;
60612;SDS011;46443;59.792;17.626;2022-08-03T09:07:26;2.80;;;2.10;;
60612;SDS011;46443;59.792;17.626;2022-08-03T09:09:52;4.17;;;2.50;;
60612;SDS011;46443;59.792;17.626;2022-08-03T09:12:18;4.38;;;2.33;;
60612;SDS011;46443;59.792;17.626;2022-08-03T09:14:44;4.53;;;2.40;;
60612;SDS011;46443;59.792;17.626;2022-08-03T09:17:10;4.57;;;2.45;;
60612;SDS011;46443;59.792;17.626;2022-08-03T09:19:36;5.20;;;2.35;;
60612;SDS011;46443;59.792;17.626;2022-08-03T09:22:06;3.58;;;2.22;;
60612;SDS011;46443;59.792;17.626;2022-08-03T09:24:33;3.45;;;2.20;;
60612;SDS011;46443;59.792;17.626;2022-08-03T09:26:59;3.40;;;2.15;;
60612;SDS011;46443;59.792;17.626;2022-08-03T09:29:25;3.33;;;2.30;;
60612;SDS011;46443;59.792;17.626;2022-08-03T09:31:59;3.10;;;2.20;;
60612;SDS011;46443;59.792;17.626;2022-08-03T09:34:25;3.20;;;2.17;;
60612;SDS011;46443;59.792;17.626;2022-08-03T09:36:52;4.25;;;2.25;;
60612;SDS011;46443;59.792;17.626;2022-08-03T09:39:19;3.10;;;2.28;;
60612;SDS011;46443;59.792;17.626;2022-08-03T09:42:07;3.25;;;2.10;;
60612;SDS011;46443;59.792;17.626;2022-08-03T09:44:32;3.22;;;2.55;;
60612;SDS011;46443;59.792;17.626;2022-08-03T09:46:59;3.78;;;2.40;;
60612;SDS011;46443;59.792;17.626;2022-08-03T09:49:25;4.50;;;2.58;;
60612;SDS011;46443;59.792;17.626;2022-08-03T09:51:52;4.82;;;2.50;;
60612;SDS011;46443;59.792;17.626;2022-08-03T09:54:27;3.30;;;2.40;;
60612;SDS011;46443;59.792;17.626;2022-08-03T09:56:53;3.13;;;2.30;;
60612;SDS011;46443;59.792;17.626;2022-08-03T09:59:23;3.00;;;2.22;;
60612;SDS011;46443;59.792;17.626;2022-08-03T10:01:50;3.17;;;2.30;;
60612;SDS011;46443;59.792;17.626;2022-08-03T10:04:16;9.07;;;2.47;;
60612;SDS011;46443;59.792;17.626;2022-08-03T10:07:00;3.83;;;2.22;;
60612;SDS011;46443;59.792;17.626;2022-08-03T10:09:26;3.30;;;2.10;;
60612;SDS011;46443;59.792;17.626;2022-08-03T10:11:52;2.95;;;2.00;;
60612;SDS011;46443;59.792;17.626;2022-08-03T10:14:19;4.43;;;2.20;;
60612;SDS011;46443;59.792;17.626;2022-08-03T10:16:46;4.18;;;2.50;;
60612;SDS011;46443;59.792;17.626;2022-08-03T10:19:13;3.85;;;2.30;;
60612;SDS011;46443;59.792;17.626;2022-08-03T10:21:40;2.95;;;2.10;;
60612;SDS011;46443;59.792;17.626;2022-08-03T10:24:07;3.08;;;2.00;;
60612;SDS011;46443;59.792;17.626;2022-08-03T10:26:34;3.35;;;2.22;;
60612;SDS011;46443;59.792;17.626;2022-08-03T10:29:02;3.60;;;2.00;;
60612;SDS011;46443;59.792;17.626;2022-08-03T10:31:31;4.15;;;2.00;;
60612;SDS011;46443;59.792;17.626;2022-08-03T10:33:59;3.35;;;2.20;;
60612;SDS011;46443;59.792;17.626;2022-08-03T10:36:26;3.22;;;2.20;;
60612;SDS011;46443;59.792;17.626;2022-08-03T10:38:55;3.88;;;2.30;;
60612;SDS011;46443;59.792;17.626;2022-08-03T10:41:25;3.13;;;2.22;;
60612;SDS011;46443;59.792;17.626;2022-08-03T10:43:57;2.88;;;2.20;;
60612;SDS011;46443;59.792;17.626;2022-08-03T10:46:23;4.35;;;2.10;;
60612;SDS011;46443;59.792;17.626;2022-08-03T10:48:51;3.70;;;2.03;;
60612;SDS011;46443;59.792;17.626;2022-08-03T10:51:18;3.22;;;2.22;;
60612;SDS011;46443;59.792;17.626;2022-08-03T10:53:44;3.05;;;2.05;;
60612;SDS011;46443;59.792;17.626;2022-08-03T10:59:15;4.15;;;2.45;;
60612;SDS011;46443;59.792;17.626;2022-08-03T11:01:51;4.03;;;2.30;;
60612;SDS011;46443;59.792;17.626;2022-08-03T11:04:18;3.88;;;2.30;;
60612;SDS011;46443;59.792;17.626;2022-08-03T11:06:45;4.03;;;2.10;;
60612;SDS011;46443;59.792;17.626;2022-08-03T11:11:39;3.10;;;2.28;;
60612;SDS011;46443;59.792;17.626;2022-08-03T11:14:18;3.45;;;2.20;;
60612;SDS011;46443;59.792;17.626;2022-08-03T11:19:12;3.33;;;2.17;;
60612;SDS011;46443;59.792;17.626;2022-08-03T11:21:59;2.60;;;1.90;;
60612;SDS011;46443;59.792;17.626;2022-08-03T11:33:08;3.05;;;2.08;;
60612;SDS011;46443;59.792;17.626;2022-08-03T11:40:35;2.53;;;2.00;;
60612;SDS011;46443;59.792;17.626;2022-08-03T11:43:03;2.85;;;2.20;;
60612;SDS011;46443;59.792;17.626;2022-08-03T11:45:29;3.30;;;2.00;;
60612;SDS011;46443;59.792;17.626;2022-08-03T11:47:55;2.38;;;1.80;;
60612;SDS011;46443;59.792;17.626;2022-08-03T11:50:25;2.60;;;1.90;;
60612;SDS011;46443;59.792;17.626;2022-08-03T11:52:51;2.70;;;1.80;;
60612;SDS011;46443;59.792;17.626;2022-08-03T11:55:18;2.35;;;1.70;;
60612;SDS011;46443;59.792;17.626;2022-08-03T11:57:45;2.78;;;1.92;;
60612;SDS011;46443;59.792;17.626;2022-08-03T12:00:18;3.88;;;2.00;;
60612;SDS011;46443;59.792;17.626;2022-08-03T12:02:58;2.72;;;1.88;;
60612;SDS011;46443;59.792;17.626;2022-08-03T12:08:00;3.45;;;1.80;;
60612;SDS011;46443;59.792;17.626;2022-08-03T12:10:26;3.20;;;2.00;;
60612;SDS011;46443;59.792;17.626;2022-08-03T12:12:55;3.17;;;2.00;;
60612;SDS011;46443;59.792;17.626;2022-08-03T12:15:28;4.28;;;2.10;;
60612;SDS011;46443;59.792;17.626;2022-08-03T12:17:55;3.90;;;2.05;;
60612;SDS011;46443;59.792;17.626;2022-08-03T12:20:26;4.03;;;2.20;;
60612;SDS011;46443;59.792;17.626;2022-08-03T12:22:52;3.20;;;1.90;;
60612;SDS011;46443;59.792;17.626;2022-08-03T12:25:22;3.15;;;2.10;;
60612;SDS011;46443;59.792;17.626;2022-08-03T12:27:48;3.58;;;2.25;;
60612;SDS011;46443;59.792;17.626;2022-08-03T12:30:15;2.85;;;1.85;;
60612;SDS011;46443;59.792;17.626;2022-08-03T12:32:41;3.63;;;2.15;;
60612;SDS011;46443;59.792;17.626;2022-08-03T12:35:08;2.78;;;1.98;;
60612;SDS011;46443;59.792;17.626;2022-08-03T12:37:34;4.60;;;1.98;;
60612;SDS011;46443;59.792;17.626;2022-08-03T12:40:01;2.70;;;2.10;;
60612;SDS011;46443;59.792;17.626;2022-08-03T12:42:29;3.17;;;1.85;;
60612;SDS011;46443;59.792;17.626;2022-08-03T12:44:55;3.38;;;1.90;;
60612;SDS011;46443;59.792;17.626;2022-08-03T12:47:21;3.40;;;2.03;;
60612;SDS011;46443;59.792;17.626;2022-08-03T12:49:48;2.80;;;1.90;;
60612;SDS011;46443;59.792;17.626;2022-08-03T12:52:15;2.80;;;2.00;;
60612;SDS011;46443;59.792;17.626;2022-08-03T12:54:41;3.00;;;2.20;;
60612;SDS011;46443;59.792;17.626;2022-08-03T12:57:11;4.07;;;2.10;;
60612;SDS011;46443;59.792;17.626;2022-08-03T12:59:43;2.75;;;1.98;;
60612;SDS011;46443;59.792;17.626;2022-08-03T13:02:19;3.28;;;2.00;;
60612;SDS011;46443;59.792;17.626;2022-08-03T13:04:46;2.63;;;1.85;;
60612;SDS011;46443;59.792;17.626;2022-08-03T13:07:13;3.08;;;2.30;;
60612;SDS011;46443;59.792;17.626;2022-08-03T13:12:09;3.33;;;2.10;;
60612;SDS011;46443;59.792;17.626;2022-08-03T13:14:35;3.20;;;2.30;;
60612;SDS011;46443;59.792;17.626;2022-08-03T13:17:02;5.38;;;2.38;;
60612;SDS011;46443;59.792;17.626;2022-08-03T13:19:28;4.20;;;2.10;;
60612;SDS011;46443;59.792;17.626;2022-08-03T13:21:54;6.22;;;2.20;;
60612;SDS011;46443;59.792;17.626;2022-08-03T13:24:20;3.67;;;1.90;;
60612;SDS011;46443;59.792;17.626;2022-08-03T13:26:46;2.97;;;2.20;;
60612;SDS011;46443;59.792;17.626;2022-08-03T13:29:12;2.88;;;2.15;;
60612;SDS011;46443;59.792;17.626;2022-08-03T13:31:38;3.13;;;2.20;;
60612;SDS011;46443;59.792;17.626;2022-08-03T13:34:04;3.90;;;2.20;;
60612;SDS011;46443;59.792;17.626;2022-08-03T13:36:30;3.58;;;2.38;;
60612;SDS011;46443;59.792;17.626;2022-08-03T13:38:56;3.85;;;2.40;;
60612;SDS011;46443;59.792;17.626;2022-08-03T13:41:22;3.20;;;2.33;;
60612;SDS011;46443;59.792;17.626;2022-08-03T13:43:48;2.83;;;2.28;;
60612;SDS011;46443;59.792;17.626;2022-08-03T13:46:14;4.93;;;2.30;;
60612;SDS011;46443;59.792;17.626;2022-08-03T13:48:41;4.15;;;2.35;;
60612;SDS011;46443;59.792;17.626;2022-08-03T13:51:07;4.85;;;2.30;;
60612;SDS011;46443;59.792;17.626;2022-08-03T13:53:33;3.45;;;2.20;;
60612;SDS011;46443;59.792;17.626;2022-08-03T13:55:59;4.18;;;2.22;;
60612;SDS011;46443;59.792;17.626;2022-08-03T13:58:25;3.97;;;2.30;;
60612;SDS011;46443;59.792;17.626;2022-08-03T14:00:51;3.53;;;2.33;;
60612;SDS011;46443;59.792;17.626;2022-08-03T14:03:17;3.60;;;2.15;;
60612;SDS011;46443;59.792;17.626;2022-08-03T14:05:43;3.75;;;2.35;;
60612;SDS011;46443;59.792;17.626;2022-08-03T14:08:09;3.83;;;2.30;;
60612;SDS011;46443;59.792;17.626;2022-08-03T14:10:36;3.13;;;2.20;;
60612;SDS011;46443;59.792;17.626;2022-08-03T14:13:03;4.28;;;2.28;;
60612;SDS011;46443;59.792;17.626;2022-08-03T14:15:29;4.47;;;2.10;;
60612;SDS011;46443;59.792;17.626;2022-08-03T14:17:55;3.65;;;1.90;;
60612;SDS011;46443;59.792;17.626;2022-08-03T14:20:22;2.78;;;2.00;;
60612;SDS011;46443;59.792;17.626;2022-08-03T14:22:48;2.72;;;2.05;;
60612;SDS011;46443;59.792;17.626;2022-08-03T14:25:14;4.35;;;2.63;;
60612;SDS011;46443;59.792;17.626;2022-08-03T14:27:40;3.25;;;2.22;;
60612;SDS011;46443;59.792;17.626;2022-08-03T14:30:06;4.97;;;2.22;;
60612;SDS011;46443;59.792;17.626;2022-08-03T14:32:32;6.03;;;2.33;;
60612;SDS011;46443;59.792;17.626;2022-08-03T14:34:58;3.78;;;2.22;;
60612;SDS011;46443;59.792;17.626;2022-08-03T14:37:24;4.28;;;2.20;;
60612;SDS011;46443;59.792;17.626;2022-08-03T14:39:50;4.10;;;2.30;;
60612;SDS011;46443;59.792;17.626;2022-08-03T14:42:16;3.70;;;2.20;;
60612;SDS011;46443;59.792;17.626;2022-08-03T14:44:44;5.13;;;2.20;;
60612;SDS011;46443;59.792;17.626;2022-08-03T14:47:10;3.42;;;2.00;;
60612;SDS011;46443;59.792;17.626;2022-08-03T14:49:36;3.95;;;2.45;;
60612;SDS011;46443;59.792;17.626;2022-08-03T14:52:02;5.28;;;2.28;;
60612;SDS011;46443;59.792;17.626;2022-08-03T14:54:28;3.33;;;2.30;;
60612;SDS011;46443;59.792;17.626;2022-08-03T14:56:55;3.90;;;2.20;;
60612;SDS011;46443;59.792;17.626;2022-08-03T14:59:21;4.68;;;2.55;;
60612;SDS011;46443;59.792;17.626;2022-08-03T15:01:47;5.13;;;2.53;;
60612;SDS011;46443;59.792;17.626;2022-08-03T15:04:13;3.63;;;2.50;;
60612;SDS011;46443;59.792;17.626;2022-08-03T15:06:39;7.45;;;2.47;;
60612;SDS011;46443;59.792;17.626;2022-08-03T15:09:05;3.50;;;2.40;;
60612;SDS011;46443;59.792;17.626;2022-08-03T15:11:31;5.28;;;2.63;;
60612;SDS011;46443;59.792;17.626;2022-08-03T15:13:57;5.88;;;2.75;;
60612;SDS011;46443;59.792;17.626;2022-08-03T15:16:23;3.45;;;2.40;;